Stations météo

réclame
Mon MeteoGroup
Navacerrada, Espagne (8215): Température de l'air & dewpoint: 15.01.2018 13:00:00 - 21.01.2018 13:00:00 (CET)Navacerrada, Espagne (8215): Vitesse du vent: 15.01.2018 13:00:00 - 21.01.2018 13:00:00 (CET)Navacerrada, Espagne (8215): Direction du vent: 15.01.2018 13:00:00 - 21.01.2018 13:00:00 (CET)Navacerrada, Espagne (8215): visibility: 15.01.2018 13:00:00 - 21.01.2018 13:00:00 (CET)Navacerrada, Espagne (8215): Quantités de précipitations: 15.01.2018 13:00:00 - 21.01.2018 13:00:00 (CET)
Date & Time tt [°C] td [°C] ff [km/h] ff [knt] dd vv [km] rr [mm]
21.01.2018 13:00:00 4,1 4,1 18 10 N 10 -
21.01.2018 12:00:00 3,2 3,2 18 10 NNE 14 0,0
21.01.2018 11:00:00 1,9 1,9 18 10 NNE 0,2 0,0
21.01.2018 10:00:00 0,5 0,5 16 9 N 0,2 -
21.01.2018 09:00:00 0,3 0,3 21 11 N - 0,0
21.01.2018 08:00:00 0,3 0,3 21 11 N - 0,0
21.01.2018 07:00:00 0,3 0,3 18 10 N 0,1 -
21.01.2018 06:00:00 0,3 0,3 21 11 N - 0,0
21.01.2018 05:00:00 0,3 0,3 21 11 NNW - 0,0
21.01.2018 04:00:00 0,4 0,4 24 13 N - -
21.01.2018 03:00:00 0,6 0,6 22 12 N - 0,0
21.01.2018 02:00:00 0,8 0,8 24 13 NNW - 0,0
21.01.2018 01:00:00 0,8 0,8 21 11 N - -
21.01.2018 00:00:00 0,8 0,8 21 11 N - 0,0
20.01.2018 23:00:00 0,8 0,8 18 10 N - 0,0
20.01.2018 22:00:00 0,7 0,7 16 9 N - -
20.01.2018 21:00:00 0,7 0,7 16 9 NNW 0,1 0,0
20.01.2018 20:00:00 1,0 0,7 15 8 N 13 0,0
20.01.2018 19:00:00 1,3 0,3 11 6 N 15 -
20.01.2018 18:00:00 2,1 0,0 11 6 N 20 0,0
20.01.2018 17:00:00 3,7 -0,9 11 6 NW 20 0,0
20.01.2018 16:00:00 3,6 -1,2 8 4 NW 35 -
20.01.2018 15:00:00 1,4 -2,2 9 5 NNW 20 0,0
20.01.2018 14:00:00 0,5 -4,2 9 5 NNW 20 0,0
20.01.2018 13:00:00 0,0 -7,3 15 8 N 30 -
20.01.2018 12:00:00 -0,6 -8,3 16 9 N 20 0,0
20.01.2018 11:00:00 -0,4 -6,4 16 9 N 20 0,0
20.01.2018 10:00:00 -0,6 -5,8 16 9 N 30 -
20.01.2018 09:00:00 -1,6 -4,9 13 7 NNW 20 0,0
20.01.2018 08:00:00 -1,1 -3,5 16 9 NNW 20 0,0
20.01.2018 07:00:00 -1,2 -2,0 13 7 NNW 15 -
20.01.2018 06:00:00 -1,3 -1,3 15 8 N 10 0,0
20.01.2018 05:00:00 -0,6 -0,6 15 8 N 1,7 0,0
20.01.2018 04:00:00 -0,1 -0,1 11 6 NNW 0,8 -
20.01.2018 03:00:00 0,1 0,1 15 8 NNW 0,7 0,0
20.01.2018 02:00:00 -0,1 -0,1 15 8 NNW 0,1 0,0
20.01.2018 01:00:00 0,2 0,2 18 10 NNW 0,3 -
20.01.2018 00:00:00 0,3 0,3 15 8 NNW - 0,0
19.01.2018 23:00:00 0,2 0,2 18 10 N 0,1 0,0
19.01.2018 22:00:00 0,0 0,0 21 11 N 0,5 -
19.01.2018 21:00:00 0,2 0,2 22 12 N - 0,0
19.01.2018 20:00:00 0,3 0,3 18 10 N - 0,0
19.01.2018 19:00:00 0,3 0,3 18 10 N 0,3 -
19.01.2018 18:00:00 0,4 0,4 21 11 N 0,2 0,0
19.01.2018 17:00:00 1,5 -0,1 24 13 N 13 0,0
19.01.2018 16:00:00 2,3 -0,3 16 9 N 35 -
19.01.2018 15:00:00 3,7 -1,3 15 8 N 20 0,0
19.01.2018 14:00:00 1,4 0,2 21 11 N 7 0,0
19.01.2018 13:00:00 3,3 -0,5 16 9 N 35 -
19.01.2018 12:00:00 3,9 -2,1 16 9 N 20 0,0
19.01.2018 11:00:00 2,5 -0,9 18 10 N 20 0,0
19.01.2018 10:00:00 2,3 -1,0 18 10 NNE 30 -
19.01.2018 09:00:00 1,2 -0,7 18 10 NNE 20 0,0
19.01.2018 08:00:00 2,6 -1,8 18 10 NNE 20 0,0
19.01.2018 07:00:00 1,9 -1,5 18 10 N 15 -
19.01.2018 06:00:00 1,3 -0,6 21 11 N 20 0,0
19.01.2018 05:00:00 1,6 -0,3 18 10 N 20 0,0
19.01.2018 04:00:00 1,3 -0,8 16 9 N 20 -
19.01.2018 03:00:00 1,6 -1,8 15 8 N 20 0,0
19.01.2018 02:00:00 2,1 -4,9 13 7 NNW 20 0,0
19.01.2018 01:00:00 2,6 -5,1 9 5 NNW 20 -
19.01.2018 00:00:00 3,4 -5,3 8 4 NNW 20 0,0
18.01.2018 23:00:00 3,9 -5,6 9 5 NNE 20 0,0
18.01.2018 22:00:00 4,2 -5,9 13 7 N 20 -
18.01.2018 21:00:00 4,3 -6,6 13 7 NNE 20 0,0
18.01.2018 20:00:00 4,5 -7,3 15 8 N 20 0,0
18.01.2018 19:00:00 5,1 -9,5 16 9 N 25 -
18.01.2018 18:00:00 5,2 -3,1 13 7 N 20 0,0
18.01.2018 17:00:00 7,7 -2,9 4 2 NW 20 0,0
18.01.2018 16:00:00 8,1 -3,7 5 3 NW 30 -
18.01.2018 15:00:00 8,0 -3,5 8 4 NNW 20 0,0
18.01.2018 14:00:00 9,9 -4,5 9 5 NW 20 0,0
18.01.2018 13:00:00 9,4 -2,9 2 1 N 30 -
18.01.2018 12:00:00 8,7 -3,8 4 2 WNW 20 0,0
18.01.2018 11:00:00 7,4 -5,0 11 6 N 20 0,0
18.01.2018 10:00:00 6,1 -4,7 11 6 N 30 -
18.01.2018 09:00:00 4,9 -5,2 5 3 NW 20 0,0
18.01.2018 08:00:00 5,5 -5,8 5 3 NNE 20 0,0
18.01.2018 07:00:00 5,8 -5,8 13 7 N 20 -
18.01.2018 06:00:00 5,9 -6,4 9 5 N 20 0,0
18.01.2018 05:00:00 3,6 -6,4 9 5 NW 20 0,0
18.01.2018 04:00:00 3,9 -6,1 11 6 WNW 20 -
18.01.2018 03:00:00 3,3 -7,5 11 6 WNW 20 0,0
18.01.2018 02:00:00 2,5 -8,3 11 6 W 20 0,0
18.01.2018 01:00:00 2,2 -13,2 15 8 W 20 -
18.01.2018 00:00:00 1,8 -14,4 11 6 W 20 0,0
17.01.2018 23:00:00 1,8 -14,0 8 4 WNW 20 0,0
17.01.2018 22:00:00 1,7 -13,7 13 7 NNW 20 -
17.01.2018 21:00:00 2,6 -12,9 15 8 N 20 0,0
17.01.2018 20:00:00 2,8 -15,3 16 9 N 20 0,0
17.01.2018 19:00:00 2,6 -10,3 13 7 NE 21 -
17.01.2018 18:00:00 2,0 -4,3 16 9 NE 20 0,0
17.01.2018 17:00:00 2,5 0,4 5 3 NNW 20 0,0
17.01.2018 16:00:00 2,3 -0,1 9 5 N 20 -
17.01.2018 15:00:00 2,1 -0,8 16 9 N 20 0,0
17.01.2018 14:00:00 0,9 0,9 16 9 N 20 0,0
17.01.2018 13:00:00 0,5 0,5 18 10 N 20 -
17.01.2018 12:00:00 0,2 0,2 21 11 N 8 0,0
17.01.2018 11:00:00 0,2 0,2 16 9 N 0,1 0,0
17.01.2018 10:00:00 0,0 0,0 26 14 N 0,1 -
17.01.2018 09:00:00 0,1 0,1 24 13 N 0,1 0,0
17.01.2018 08:00:00 0,4 0,4 22 12 N 0,1 0,0
17.01.2018 07:00:00 0,7 0,7 18 10 NNE 0,1 -
17.01.2018 06:00:00 0,9 0,9 24 13 N - 0,0
17.01.2018 05:00:00 1,0 1,0 22 12 N - 0,0
17.01.2018 04:00:00 1,2 1,2 22 12 N - -
17.01.2018 03:00:00 1,3 1,3 22 12 N - 0,0
17.01.2018 02:00:00 1,3 1,3 24 13 N - 0,0
17.01.2018 01:00:00 1,4 1,4 29 16 N - -
17.01.2018 00:00:00 1,5 1,5 24 13 N - 0,0
16.01.2018 23:00:00 1,9 1,9 21 11 N - 0,0
16.01.2018 22:00:00 1,9 1,9 21 11 N - -
16.01.2018 21:00:00 1,9 1,9 16 9 N 0,1 0,0
16.01.2018 20:00:00 2,0 2,0 16 9 N 0,1 0,0
16.01.2018 19:00:00 2,2 2,2 15 8 NNE 0,2 -
16.01.2018 18:00:00 2,5 2,5 16 9 N - 0,0
16.01.2018 17:00:00 2,8 2,8 16 9 N 0,1 0,0
16.01.2018 16:00:00 3,0 3,0 18 10 N 0,5 -
16.01.2018 15:00:00 2,9 2,9 18 10 N - 0,0
16.01.2018 14:00:00 2,7 2,7 18 10 N - 0,0
16.01.2018 13:00:00 2,0 2,0 21 11 N 0,4 -
16.01.2018 12:00:00 1,8 1,8 26 14 N - 0,0
16.01.2018 11:00:00 1,6 1,6 22 12 N 0,1 0,2
16.01.2018 10:00:00 1,2 1,2 22 12 N 0,3 -
16.01.2018 09:00:00 0,8 0,8 21 11 N 0,1 0,2
16.01.2018 08:00:00 0,6 0,6 15 8 N 0,1 0,4
16.01.2018 07:00:00 0,5 0,5 18 10 N 0,2 -
16.01.2018 06:00:00 0,3 0,3 16 9 N 0,1 0,2
16.01.2018 05:00:00 0,1 0,1 21 11 N 0,1 0,2
16.01.2018 04:00:00 0,1 0,1 22 12 N 0,1 -
16.01.2018 03:00:00 0,0 0,0 16 9 NNW - 0,0
16.01.2018 02:00:00 -0,6 -0,6 21 11 N - 0,0
16.01.2018 01:00:00 -1,4 -1,4 21 11 N 0,1 -
16.01.2018 00:00:00 -2,5 -4,7 21 11 N 11 -
15.01.2018 23:00:00 -2,8 -5,9 22 12 N 20 0,0
15.01.2018 22:00:00 -2,8 -5,6 24 13 N 20 -
15.01.2018 21:00:00 -2,8 -6,4 22 12 N 20 0,0
15.01.2018 20:00:00 -2,9 -5,7 18 10 NE 20 0,0
15.01.2018 19:00:00 -3,3 -6,6 24 13 NNW 15 -
15.01.2018 18:00:00 -3,0 -5,0 15 8 N 20 0,0
15.01.2018 17:00:00 -2,6 -4,5 15 8 NNE 20 0,0
15.01.2018 16:00:00 -2,1 -3,8 15 8 NNE 25 -
15.01.2018 15:00:00 -1,6 -2,7 15 8 N 20 0,0
15.01.2018 14:00:00 -1,1 -3,1 11 6 NNW 20 0,0
15.01.2018 13:00:00 -1,2 -4,5 8 4 NNW 30 -

tt = Température de l'air
td = dewpoint
ff = Vitesse du vent
dd = Direction du vent
vv = visibility
rr = Quantités de précipitations

stations d'obs. à proximité